.
WxDataArchive / Data Records for 2006-05-05
2006-05-04 May 2006 2006-05-06

Data Records for Friday, 05 May 2006

Time	Temp	Chill	HIndex	Humid	Dewpt	 Wind 	HiWind	WindDir	Rain 	Barom 
-----	----	-----	------	-----	-----	------	------	-------	-----	----- 
00:00	51.3	51.3	51.3	61	38.3	0	0	---	0.00	29.902 
00:05	51.0	51.0	51.0	63	38.9	0	0	---	0.00	29.902 
00:10	50.7	50.7	50.7	63	38.6	0	0	---	0.00	29.902 
00:15	50.2	50.2	50.2	65	38.9	0	0	---	0.00	29.905 
00:20	49.9	49.9	49.9	65	38.6	0	0	---	0.00	29.905 
00:25	49.6	49.6	49.6	67	39.1	0	0	---	0.00	29.905 
00:30	49.2	49.2	49.2	69	39.5	0	0	---	0.00	29.904 
00:35	48.9	48.9	48.9	69	39.2	0	0	---	0.00	29.904 
00:40	48.6	48.6	48.6	70	39.3	0	0	---	0.00	29.904 
00:45	48.5	48.5	48.5	72	39.9	0	0	---	0.00	29.905 
00:50	48.2	48.2	48.2	72	39.6	0	0	---	0.00	29.905 
00:55	48.0	48.0	48.0	73	39.8	0	0	---	0.00	29.905 
01:00	47.9	47.9	47.9	74	40.0	0	0	---	0.00	29.903 
01:05	47.7	47.7	47.7	75	40.2	0	0	---	0.00	29.903 
01:10	47.6	47.6	47.6	76	40.4	0	0	---	0.00	29.903 
01:15	47.4	47.4	47.4	76	40.2	0	0	---	0.00	29.902 
01:20	47.3	47.3	47.3	76	40.1	0	0	---	0.00	29.902 
01:25	47.1	47.1	47.1	76	39.9	0	0	---	0.00	29.902 
01:30	47.0	47.0	47.0	76	39.8	0	0	---	0.00	29.903 
01:35	46.8	46.8	46.8	77	40.0	0	0	---	0.00	29.903 
01:40	46.8	46.8	46.8	77	40.0	0	0	---	0.00	29.903 
01:45	46.7	46.7	46.7	78	40.2	0	0	---	0.00	29.903 
01:50	46.7	46.7	46.7	78	40.2	0	0	---	0.00	29.903 
01:55	46.5	46.5	46.5	78	40.0	0	0	---	0.00	29.903 
02:00	46.5	46.5	46.5	79	40.3	0	0	---	0.00	29.900 
02:05	46.5	46.5	46.5	79	40.3	0	0	---	0.00	29.900 
02:10	46.5	46.5	46.5	80	40.7	0	0	---	0.00	29.900 
02:15	46.5	46.5	46.5	80	40.7	0	0	---	0.00	29.899 
02:20	46.5	46.5	46.5	79	40.3	0	0	---	0.00	29.899 
02:25	46.5	46.5	46.5	79	40.3	0	0	---	0.00	29.899 
02:30	46.7	46.7	46.7	78	40.2	0	0	---	0.00	29.892 
02:35	46.7	46.7	46.7	79	40.5	0	0	---	0.00	29.892 
02:40	46.7	46.7	46.7	79	40.5	0	0	---	0.00	29.892 
02:45	46.8	46.8	46.8	78	40.3	0	0	---	0.00	29.893 
02:50	47.0	47.0	47.0	78	40.5	0	0	---	0.00	29.893 
02:55	47.1	47.1	47.1	78	40.6	0	0	---	0.00	29.893 
03:00	47.1	47.1	47.1	78	40.6	0	0	---	0.00	29.886 
03:05	47.0	47.0	47.0	78	40.5	0	0	---	0.00	29.886 
03:10	47.0	47.0	47.0	78	40.5	0	0	---	0.00	29.886 
03:15	46.8	46.8	46.8	78	40.3	0	0	---	0.00	29.885 
03:20	46.7	46.7	46.7	78	40.2	0	0	---	0.00	29.885 
03:25	46.7	46.7	46.7	78	40.2	0	0	---	0.00	29.885 
03:30	46.5	46.5	46.5	78	40.0	0	0	---	0.00	29.876 
03:35	46.4	46.4	46.4	79	40.2	0	0	---	0.00	29.876 
03:40	46.2	46.2	46.2	78	39.7	0	0	---	0.00	29.876 
03:45	46.1	46.1	46.1	78	39.6	0	0	---	0.00	29.874 
03:50	46.0	46.0	46.0	78	39.5	0	0	---	0.00	29.874 
03:55	45.8	45.8	45.8	79	39.7	0	0	---	0.00	29.874 
04:00	45.7	45.7	45.7	80	39.9	0	0	---	0.00	29.872 
04:05	45.7	45.7	45.7	80	39.9	0	0	---	0.00	29.872 
04:10	45.4	45.4	45.4	80	39.6	0	0	---	0.00	29.872 
04:15	45.2	45.2	45.2	81	39.7	0	0	---	0.00	29.876 
04:20	45.1	45.1	45.1	81	39.6	0	0	---	0.00	29.876 
04:25	44.9	44.9	44.9	81	39.4	0	0	---	0.00	29.876 
04:30	44.8	44.8	44.8	81	39.3	0	0	---	0.00	29.876 
04:35	44.6	44.6	44.6	82	39.4	0	0	---	0.00	29.876 
04:40	44.5	44.5	44.5	82	39.4	0	0	---	0.00	29.876 
04:45	44.5	44.5	44.5	83	39.7	0	0	---	0.00	29.875 
04:50	44.3	44.3	44.3	83	39.5	0	0	---	0.00	29.875 
04:55	44.2	44.2	44.2	84	39.7	0	0	---	0.00	29.875 
05:00	44.2	44.2	44.2	84	39.7	0	0	---	0.00	29.878 
05:05	44.2	44.2	44.2	84	39.7	0	0	---	0.00	29.878 
05:10	44.2	44.2	44.2	84	39.7	0	0	---	0.00	29.878 
05:15	44.3	44.3	44.3	84	39.8	0	0	---	0.00	29.881 
05:20	44.6	44.6	44.6	84	40.1	0	0	---	0.00	29.881 
05:25	45.1	45.1	45.1	82	39.9	0	0	---	0.00	29.881 
05:30	45.4	45.4	45.4	81	39.9	0	0	---	0.00	29.879 
05:35	45.5	45.5	45.5	80	39.7	0	0	---	0.00	29.879 
05:40	45.5	45.5	45.5	80	39.7	0	0	---	0.00	29.879 
05:45	45.5	45.5	45.5	80	39.7	0	0	---	0.00	29.875 
05:50	45.7	45.7	45.7	80	39.9	0	0	---	0.00	29.875 
05:55	45.7	45.7	45.7	79	39.6	0	0	---	0.00	29.875 
06:00	45.5	45.5	45.5	80	39.7	0	0	---	0.00	29.878 
06:05	45.7	45.7	45.7	81	40.2	0	1	248	0.00	29.878 
06:10	45.7	45.7	45.7	81	40.2	0	0	---	0.00	29.878 
06:15	45.7	45.7	45.7	81	40.2	0	0	---	0.00	29.877 
06:20	45.5	45.5	45.5	81	40.0	0	0	---	0.00	29.877 
06:25	45.2	45.2	45.2	82	40.0	0	0	---	0.00	29.877 
06:30	45.1	45.1	45.1	82	39.9	0	0	---	0.00	29.880 
06:35	44.9	44.9	44.9	82	39.7	0	0	---	0.00	29.880 
06:40	44.8	44.8	44.8	82	39.6	0	0	---	0.00	29.880 
06:45	44.5	44.5	44.5	83	39.7	0	0	---	0.00	29.880 
06:50	44.3	44.3	44.3	84	39.8	0	0	---	0.00	29.880 
06:55	44.2	44.2	44.2	84	39.7	0	0	---	0.00	29.880 
07:00	44.2	44.2	44.2	84	39.7	0	0	---	0.00	29.886 
07:05	44.2	44.2	44.2	85	40.0	0	0	---	0.00	29.886 
07:10	44.3	44.3	44.3	85	40.1	0	0	---	0.00	29.886 
07:15	44.5	44.5	44.5	85	40.3	0	0	---	0.00	29.895 
07:20	44.8	44.8	44.8	85	40.6	0	0	---	0.00	29.895 
07:25	45.2	45.2	45.2	85	41.0	0	0	---	0.00	29.895 
07:30	45.7	45.7	45.7	84	41.1	0	0	---	0.00	29.897 
07:35	46.1	46.1	46.1	85	41.8	0	0	---	0.00	29.897 
07:40	46.7	46.7	46.7	84	42.1	0	0	---	0.00	29.897 
07:45	47.3	47.3	47.3	84	42.7	0	0	---	0.00	29.898 
07:50	48.0	48.0	48.0	83	43.1	0	0	---	0.00	29.898 
07:55	48.9	48.9	48.9	81	43.3	0	0	---	0.00	29.898 
08:00	50.1	50.1	50.1	77	43.2	0	0	---	0.00	29.896 
08:05	51.0	51.0	51.0	77	44.0	0	1	248	0.00	29.896 
08:10	51.7	51.7	51.7	75	44.0	0	0	---	0.00	29.896 
08:15	52.5	52.5	52.5	73	44.1	0	1	248	0.00	29.900 
08:20	53.3	53.3	53.3	70	43.8	0	1	248	0.00	29.900 
08:25	53.9	53.9	53.9	71	44.7	0	1	248	0.00	29.900 
08:30	54.5	54.5	54.5	70	44.9	0	1	248	0.00	29.898 
08:35	55.1	55.1	55.1	68	44.7	1	3	248	0.00	29.898 
08:40	55.6	55.6	55.6	68	45.2	1	2	248	0.00	29.898 
08:45	55.9	55.9	55.9	66	44.7	0	1	248	0.00	29.893 
08:50	56.3	56.3	56.3	66	45.1	1	2	248	0.00	29.893 
08:55	56.6	56.6	56.6	65	45.0	0	3	248	0.00	29.893 
09:00	57.0	57.0	57.0	63	44.5	1	3	248	0.00	29.901 
09:05	57.2	57.2	57.2	65	45.5	0	2	248	0.00	29.901 
09:10	57.5	57.5	57.5	61	44.2	1	3	248	0.00	29.901 
09:15	57.6	57.6	57.6	62	44.7	1	2	292	0.00	29.894 
09:20	58.1	58.1	58.1	64	46.0	0	2	292	0.00	29.894 
09:25	58.4	58.4	58.4	62	45.4	1	2	292	0.00	29.894 
09:30	58.7	58.7	58.7	60	44.8	1	3	270	0.00	29.889 
09:35	59.3	59.3	59.3	60	45.4	0	1	270	0.00	29.889 
09:40	59.6	59.6	59.6	62	46.6	1	2	248	0.00	29.889 
09:45	59.9	59.9	59.9	58	45.1	1	2	248	0.00	29.889 
09:50	60.4	60.4	60.4	57	45.1	1	3	248	0.00	29.889 
09:55	60.5	60.5	60.5	60	46.5	1	2	248	0.00	29.889 
10:00	60.7	60.7	60.7	56	44.9	1	3	248	0.00	29.887 
10:05	61.0	61.0	61.0	56	45.2	1	2	292	0.00	29.887 
10:10	61.2	61.2	61.2	57	45.8	1	2	292	0.00	29.887 
10:15	61.5	61.5	61.5	57	46.1	1	3	292	0.00	29.889 
10:20	62.0	62.0	62.0	62	48.8	1	3	270	0.00	29.889 
10:25	62.3	62.3	62.3	55	45.9	1	3	248	0.00	29.889 
10:30	62.3	62.3	62.3	56	46.4	1	3	248	0.00	29.888 
10:35	62.4	62.4	62.4	60	48.3	1	2	248	0.00	29.888 
10:40	62.9	62.9	62.9	54	46.0	1	3	248	0.00	29.888 
10:45	63.1	63.1	63.1	53	45.7	1	3	248	0.00	29.885 
10:50	63.5	63.5	63.5	57	48.0	1	2	248	0.00	29.885 
10:55	63.9	63.9	63.9	51	45.4	2	4	248	0.00	29.885 
11:00	63.9	63.9	63.9	55	47.4	1	5	248	0.00	29.885 
11:05	64.2	64.2	64.2	54	47.2	1	3	248	0.00	29.885 
11:10	64.5	64.5	64.5	53	47.0	2	4	270	0.00	29.885 
11:15	64.3	64.3	64.3	53	46.8	1	2	315	0.00	29.885 
11:20	64.7	64.7	64.7	52	46.7	2	4	248	0.00	29.885 
11:25	64.8	64.8	64.8	53	47.3	2	3	248	0.00	29.885 
11:30	65.0	65.0	65.0	52	46.9	2	4	315	0.00	29.886 
11:35	64.8	64.8	64.8	51	46.2	3	5	248	0.00	29.886 
11:40	65.2	65.2	65.2	50	46.1	2	5	248	0.00	29.886 
11:45	65.6	65.6	65.6	52	47.5	2	4	315	0.00	29.889 
11:50	65.8	65.8	65.8	53	48.2	2	5	270	0.00	29.889 
11:55	65.8	65.8	65.8	52	47.7	2	3	315	0.00	29.889 
12:00	66.0	66.0	66.0	51	47.3	3	5	270	0.00	29.889 
12:05	66.0	66.0	66.0	49	46.3	3	5	292	0.00	29.889 
12:10	65.8	65.8	65.8	51	47.2	3	6	248	0.00	29.889 
12:15	66.3	66.3	66.3	50	47.1	3	7	248	0.00	29.891 
12:20	65.8	65.8	65.8	50	46.6	2	6	270	0.00	29.891 
12:25	64.8	64.8	64.8	51	46.2	3	5	270	0.00	29.891 
12:30	64.3	64.3	64.3	52	46.3	3	10	270	0.00	29.891 
12:35	64.2	64.2	64.2	51	45.7	2	10	248	0.00	29.891 
12:40	64.5	64.5	64.5	52	46.5	2	6	248	0.00	29.891 
12:45	64.5	64.5	64.5	51	46.0	2	6	270	0.00	29.891 
12:50	64.0	64.0	64.0	53	46.5	2	4	270	0.00	29.891 
12:55	64.0	64.0	64.0	51	45.5	2	7	270	0.00	29.891 
13:00	63.9	63.9	63.9	49	44.4	2	5	315	0.00	29.882 
13:05	64.8	64.8	64.8	51	46.2	3	5	248	0.00	29.882 
13:10	65.0	65.0	65.0	49	45.4	2	7	270	0.00	29.882 
13:15	64.8	64.8	64.8	50	45.7	2	4	270	0.00	29.880 
13:20	64.5	64.5	64.5	48	44.4	2	4	270	0.00	29.880 
13:25	64.5	64.5	64.5	49	44.9	2	6	270	0.00	29.880 
13:30	65.2	65.2	65.2	48	45.0	3	9	270	0.00	29.874 
13:35	65.2	65.2	65.2	49	45.6	2	5	292	0.00	29.874 
13:40	65.6	65.6	65.6	46	44.3	2	5	338	0.00	29.874 
13:45	66.3	66.3	66.3	49	46.6	2	5	338	0.00	29.868 
13:50	66.4	66.4	66.4	50	47.2	2	7	315	0.00	29.868 
13:55	65.8	65.8	65.8	47	45.0	2	4	270	0.00	29.868 
14:00	66.8	66.8	66.8	47	45.9	2	5	248	0.00	29.859 
14:05	66.8	66.8	66.8	44	44.2	2	5	292	0.00	29.859 
14:10	66.1	66.1	66.1	45	44.1	2	4	315	0.00	29.859 
14:15	66.4	66.4	66.4	45	44.4	3	7	292	0.00	29.858 
14:20	66.1	66.1	66.1	50	46.9	3	7	292	0.00	29.858 
14:25	66.0	66.0	66.0	45	44.0	2	4	315	0.00	29.858 
14:30	65.5	65.5	65.5	48	45.3	2	4	338	0.00	29.860 
14:35	66.8	66.8	66.8	46	45.3	2	5	248	0.00	29.860 
14:40	66.8	66.8	66.8	50	47.6	2	9	292	0.00	29.860 
14:45	66.9	66.9	66.9	46	45.4	2	5	292	0.00	29.858 
14:50	66.1	66.1	66.1	46	44.7	3	5	338	0.00	29.858 
14:55	66.3	66.3	66.3	44	43.7	3	7	270	0.00	29.858 
15:00	66.9	66.9	66.9	48	46.6	3	7	270	0.00	29.858 
15:05	67.1	67.1	67.1	46	45.6	2	5	248	0.00	29.858 
15:10	66.3	66.3	66.3	44	43.7	3	5	315	0.00	29.858 
15:15	66.4	66.4	66.4	44	43.8	3	7	270	0.00	29.860 
15:20	66.1	66.1	66.1	43	42.9	3	6	315	0.00	29.860 
15:25	66.3	66.3	66.3	44	43.7	3	7	248	0.00	29.860 
15:30	66.6	66.6	66.6	49	46.8	2	5	315	0.00	29.858 
15:35	66.0	66.0	66.0	43	42.9	3	7	315	0.00	29.858 
15:40	64.7	64.7	64.7	46	43.4	2	4	248	0.00	29.858 
15:45	65.0	65.0	65.0	46	43.7	2	5	315	0.00	29.860 
15:50	65.3	65.3	65.3	48	45.1	3	10	270	0.00	29.860 
15:55	65.6	65.6	65.6	43	42.5	3	5	270	0.00	29.860 
16:00	65.0	65.0	65.0	45	43.1	2	5	338	0.00	29.859 
16:05	65.0	65.0	65.0	48	44.8	3	6	270	0.00	29.859 
16:10	65.5	65.5	65.5	47	44.7	2	4	270	0.00	29.859 
16:15	64.8	64.8	64.8	44	42.4	2	5	338	0.00	29.860 
16:20	63.9	63.9	63.9	46	42.7	3	10	270	0.00	29.860 
16:25	63.9	63.9	63.9	47	43.3	3	10	270	0.00	29.860 
16:30	63.9	63.9	63.9	47	43.3	3	4	315	0.00	29.861 
16:35	63.5	63.5	63.5	45	41.8	3	10	270	0.00	29.861 
16:40	63.1	63.1	63.1	47	42.5	2	6	315	0.00	29.861 
16:45	62.7	62.7	62.7	48	42.7	1	3	315	0.00	29.861 
16:50	63.1	63.1	63.1	47	42.5	3	5	270	0.00	29.861 
16:55	63.1	63.1	63.1	48	43.1	2	6	270	0.00	29.861 
17:00	62.6	62.6	62.6	46	41.5	2	6	292	0.00	29.864 
17:05	62.6	62.6	62.6	47	42.1	2	5	315	0.00	29.864 
17:10	62.6	62.6	62.6	48	42.6	2	5	270	0.00	29.864 
17:15	61.8	61.8	61.8	48	41.9	2	5	292	0.00	29.862 
17:20	61.3	61.3	61.3	47	40.9	3	7	292	0.00	29.862 
17:25	61.3	61.3	61.3	50	42.5	2	5	248	0.00	29.862 
17:30	61.0	61.0	61.0	45	39.5	3	9	270	0.00	29.863 
17:35	60.9	60.9	60.9	46	40.0	3	6	270	0.00	29.863 
17:40	60.5	60.5	60.5	47	40.2	2	5	315	0.00	29.863 
17:45	60.4	60.4	60.4	46	39.5	2	5	270	0.00	29.865 
17:50	60.4	60.4	60.4	48	40.6	2	5	270	0.00	29.865 
17:55	60.4	60.4	60.4	47	40.1	1	2	315	0.00	29.865 
18:00	60.5	60.5	60.5	47	40.2	2	5	292	0.00	29.865 
18:05	60.4	60.4	60.4	47	40.1	3	6	270	0.00	29.865 
18:10	60.1	60.1	60.1	47	39.8	3	9	270	0.00	29.865 
18:15	59.9	59.9	59.9	47	39.6	3	7	315	0.00	29.868 
18:20	59.8	59.8	59.8	50	41.1	2	6	315	0.00	29.868 
18:25	60.4	60.4	60.4	48	40.6	2	5	270	0.00	29.868 
18:30	60.5	60.5	60.5	48	40.7	2	5	315	0.00	29.871 
18:35	60.1	60.1	60.1	47	39.8	2	4	338	0.00	29.871 
18:40	59.8	59.8	59.8	46	39.0	1	3	248	0.00	29.871 
18:45	59.6	59.6	59.6	48	39.9	2	3	338	0.00	29.870 
18:50	59.6	59.6	59.6	46	38.8	2	5	315	0.00	29.870 
18:55	59.6	59.6	59.6	47	39.3	3	6	270	0.00	29.870 
19:00	59.5	59.5	59.5	47	39.3	1	4	315	0.00	29.868 
19:05	58.9	58.9	58.9	48	39.2	2	6	338	0.00	29.868 
19:10	58.4	58.4	58.4	47	38.2	2	5	315	0.00	29.868 
19:15	58.0	58.0	58.0	50	39.5	2	5	270	0.00	29.868 
19:20	57.8	57.8	57.8	50	39.3	1	5	292	0.00	29.868 
19:25	57.6	57.6	57.6	49	38.6	2	5	270	0.00	29.868 
19:30	57.6	57.6	57.6	49	38.6	1	3	338	0.00	29.867 
19:35	57.6	57.6	57.6	50	39.1	1	6	270	0.00	29.867 
19:40	57.6	57.6	57.6	53	40.6	1	4	292	0.00	29.867 
19:45	57.8	57.8	57.8	51	39.8	1	4	270	0.00	29.866 
19:50	57.5	57.5	57.5	51	39.5	1	4	315	0.00	29.866 
19:55	57.2	57.2	57.2	50	38.7	2	6	338	0.00	29.866 
20:00	56.9	56.9	56.9	50	38.5	2	5	292	0.00	29.870 
20:05	56.6	56.6	56.6	50	38.2	1	4	315	0.00	29.870 
20:10	56.3	56.3	56.3	51	38.4	1	3	292	0.00	29.870 
20:15	56.2	56.2	56.2	52	38.8	2	4	315	0.00	29.864 
20:20	56.0	56.0	56.0	52	38.6	1	3	315	0.00	29.864 
20:25	55.9	55.9	55.9	53	39.0	1	2	292	0.00	29.864 
20:30	55.6	55.6	55.6	54	39.2	1	3	270	0.00	29.867 
20:35	55.3	55.3	55.3	54	38.9	0	1	270	0.00	29.867 
20:40	55.1	55.1	55.1	54	38.8	1	3	270	0.00	29.867 
20:45	55.0	55.0	55.0	55	39.1	1	4	270	0.00	29.874 
20:50	55.0	55.0	55.0	55	39.1	1	3	315	0.00	29.874 
20:55	54.8	54.8	54.8	55	38.9	0	1	270	0.00	29.874 
21:00	54.8	54.8	54.8	55	38.9	1	2	315	0.00	29.877 
21:05	54.8	54.8	54.8	55	38.9	1	4	292	0.00	29.877 
21:10	54.8	54.8	54.8	55	38.9	1	3	292	0.00	29.877 
21:15	54.8	54.8	54.8	55	38.9	1	4	270	0.00	29.874 
21:20	54.7	54.7	54.7	55	38.9	1	4	292	0.00	29.874 
21:25	54.5	54.5	54.5	56	39.1	1	4	270	0.00	29.874 
21:30	54.5	54.5	54.5	56	39.1	1	2	315	0.00	29.884 
21:35	54.5	54.5	54.5	57	39.6	1	5	292	0.00	29.884 
21:40	54.4	54.4	54.4	58	39.9	0	3	292	0.00	29.884 
21:45	54.2	54.2	54.2	58	39.7	1	3	270	0.00	29.888 
21:50	54.1	54.1	54.1	57	39.2	1	5	270	0.00	29.888 
21:55	53.9	53.9	53.9	58	39.5	0	1	270	0.00	29.888 
22:00	53.6	53.6	53.6	59	39.6	1	5	292	0.00	29.890 
22:05	53.6	53.6	53.6	59	39.6	1	5	292	0.00	29.890 
22:10	53.5	53.5	53.5	59	39.5	1	5	315	0.00	29.890 
22:15	53.5	53.5	53.5	59	39.5	1	5	338	0.00	29.894 
22:20	53.3	53.3	53.3	60	39.8	0	2	315	0.00	29.894 
22:25	53.2	53.2	53.2	59	39.2	1	4	315	0.00	29.894 
22:30	53.1	53.1	53.1	60	39.6	1	3	0	0.00	29.897 
22:35	52.9	52.9	52.9	61	39.8	1	5	292	0.00	29.897 
22:40	52.8	52.8	52.8	61	39.7	1	4	315	0.00	29.897 
22:45	52.6	52.6	52.6	62	40.0	0	2	315	0.00	29.901 
22:50	52.5	52.5	52.5	62	39.9	1	4	292	0.00	29.901 
22:55	52.2	52.2	52.2	62	39.6	2	7	292	0.00	29.901 
23:00	52.0	52.0	52.0	62	39.4	1	5	292	0.00	29.906 
23:05	51.7	51.7	51.7	62	39.1	1	9	338	0.00	29.906 
23:10	51.4	51.4	51.4	63	39.2	1	3	292	0.00	29.906 
23:15	51.1	51.1	51.1	63	38.9	2	5	315	0.00	29.907 
23:20	51.0	51.0	51.0	64	39.3	1	4	315	0.00	29.907 
23:25	50.8	50.8	50.8	65	39.5	1	4	292	0.00	29.907 
23:30	50.5	50.5	50.5	65	39.2	1	4	315	0.00	29.908 
23:35	50.4	50.4	50.4	65	39.1	0	2	315	0.00	29.908 
23:40	50.2	50.2	50.2	66	39.3	1	3	270	0.00	29.908 
23:45	50.2	50.2	50.2	65	38.9	1	3	270	0.00	29.909 
23:50	50.1	50.1	50.1	65	38.8	0	2	270	0.00	29.909 
23:55	50.1	50.1	50.1	65	38.8	1	2	270	0.00	29.909 

CoCoRaHS
IN-AL-39
A2 Web Hosting
Creative Commons License
GoDaddy
Look for:

loaded 2017-12-10 21:42:20 • last modified 2010-11-18 10:43:29
Privacy PolicyDisclaimer
• wx.awcolley.com is powered by PmWiki v.2002016 •
• all content (unless otherwise noted) © 2017 A W Colley